createdAt,value
2019-03-21T00:01:30.425Z,9.70
2019-03-21T00:04:00.874Z,9.70
2019-03-21T00:06:28.807Z,9.50
2019-03-21T00:08:56.842Z,9.50
2019-03-21T00:12:01.180Z,9.60
2019-03-21T00:14:59.073Z,9.50
2019-03-21T00:17:29.603Z,9.50
2019-03-21T00:19:57.448Z,9.40
2019-03-21T00:22:25.277Z,9.30
2019-03-21T00:24:53.168Z,9.30
2019-03-21T00:27:21.039Z,9.20
2019-03-21T00:29:48.992Z,9.20
2019-03-21T00:32:16.848Z,9.20
2019-03-21T00:34:44.697Z,9.20
2019-03-21T00:37:12.516Z,9.20
2019-03-21T00:39:40.731Z,9.10
2019-03-21T00:42:08.567Z,9.00
2019-03-21T00:44:36.501Z,9.10
2019-03-21T00:47:04.334Z,9.00
2019-03-21T00:49:32.453Z,8.90
2019-03-21T00:52:00.365Z,8.90
2019-03-21T00:54:28.198Z,8.90
2019-03-21T00:56:56.330Z,8.80
2019-03-21T00:59:24.635Z,8.80
2019-03-21T01:01:52.544Z,8.70
2019-03-21T01:04:22.802Z,8.70
2019-03-21T01:06:50.655Z,8.70
2019-03-21T01:09:18.796Z,8.70
2019-03-21T01:11:46.621Z,8.70
2019-03-21T01:14:14.558Z,8.60
2019-03-21T01:16:42.500Z,8.60
2019-03-21T01:19:10.487Z,8.60
2019-03-21T01:21:38.326Z,8.50
2019-03-21T01:24:06.273Z,8.60
2019-03-21T01:26:34.125Z,8.60
2019-03-21T01:29:02.041Z,8.60
2019-03-21T01:31:30.285Z,8.60
2019-03-21T01:33:58.052Z,8.60
2019-03-21T01:36:26.307Z,8.60
2019-03-21T01:38:54.127Z,8.60
2019-03-21T01:41:22.222Z,8.50
2019-03-21T01:43:50.247Z,8.50
2019-03-21T01:46:18.130Z,8.40
2019-03-21T01:48:46.038Z,8.40
2019-03-21T01:51:13.957Z,8.40
2019-03-21T01:53:42.122Z,8.30
2019-03-21T01:56:10.177Z,8.30
2019-03-21T01:58:38.031Z,8.30
2019-03-21T02:01:08.714Z,8.30
2019-03-21T02:03:36.157Z,8.20
2019-03-21T02:06:04.027Z,8.20
2019-03-21T02:08:32.464Z,8.20
2019-03-21T02:11:00.283Z,8.10
2019-03-21T02:13:28.447Z,8.10
2019-03-21T02:15:59.200Z,8.10
2019-03-21T02:18:26.279Z,8.10
2019-03-21T02:20:54.130Z,8.10
2019-03-21T02:23:22.299Z,8.10
2019-03-21T02:25:50.110Z,8.00
2019-03-21T02:28:17.952Z,8.00
2019-03-21T02:30:46.065Z,8.10
2019-03-21T02:33:25.870Z,8.00
2019-03-21T02:35:53.787Z,8.00
2019-03-21T02:38:21.641Z,7.90
2019-03-21T02:40:49.971Z,7.90
2019-03-21T02:43:17.901Z,7.80
2019-03-21T02:45:45.758Z,7.80
2019-03-21T02:48:13.971Z,7.80
2019-03-21T02:50:41.929Z,7.80
2019-03-21T02:53:09.812Z,7.70
2019-03-21T02:55:37.914Z,7.70
2019-03-21T02:58:05.867Z,7.70
2019-03-21T03:00:33.995Z,7.70
2019-03-21T03:03:02.072Z,7.60
2019-03-21T03:05:30.201Z,7.60
2019-03-21T03:07:58.051Z,7.60
2019-03-21T03:10:31.598Z,7.60
2019-03-21T03:12:59.823Z,7.60
2019-03-21T03:15:28.890Z,7.60
2019-03-21T03:17:57.274Z,7.60
2019-03-21T03:20:25.777Z,7.60
2019-03-21T03:22:53.614Z,7.60
2019-03-21T03:25:21.473Z,7.60
2019-03-21T03:27:50.536Z,7.60
2019-03-21T03:30:20.276Z,7.60
2019-03-21T03:32:48.208Z,7.60
2019-03-21T03:35:16.115Z,7.60
2019-03-21T03:37:44.374Z,7.50
2019-03-21T03:40:17.896Z,7.50
2019-03-21T03:42:46.161Z,7.50
2019-03-21T03:45:17.404Z,7.50
2019-03-21T03:47:45.213Z,7.50
2019-03-21T03:50:13.058Z,7.40
2019-03-21T03:52:40.888Z,7.40
2019-03-21T03:55:10.107Z,7.30
2019-03-21T03:57:38.229Z,7.30
2019-03-21T04:00:08.246Z,7.40
2019-03-21T04:02:36.163Z,7.30
2019-03-21T04:05:05.132Z,7.40
2019-03-21T04:07:33.305Z,7.40
2019-03-21T04:10:01.239Z,7.40
2019-03-21T04:12:29.647Z,7.30
2019-03-21T04:14:57.577Z,7.20
2019-03-21T04:17:25.544Z,7.20
2019-03-21T04:19:53.501Z,7.10
2019-03-21T04:22:21.418Z,7.10
2019-03-21T04:24:49.317Z,7.10
2019-03-21T04:27:17.181Z,7.20
2019-03-21T04:29:45.373Z,7.20
2019-03-21T04:32:13.335Z,7.30
2019-03-21T04:34:41.249Z,7.30
2019-03-21T04:37:09.794Z,7.30
2019-03-21T04:39:37.615Z,7.20
2019-03-21T04:42:05.469Z,7.20
2019-03-21T04:44:33.870Z,7.20
2019-03-21T04:47:02.025Z,7.20
2019-03-21T04:49:29.858Z,7.10
2019-03-21T04:51:57.672Z,7.00
2019-03-21T04:54:25.552Z,7.00
2019-03-21T04:56:53.777Z,6.90
2019-03-21T04:59:21.606Z,6.90
2019-03-21T05:01:49.439Z,6.80
2019-03-21T05:04:17.365Z,6.80
2019-03-21T05:06:45.186Z,6.70
2019-03-21T05:09:16.044Z,6.70
2019-03-21T05:11:43.985Z,6.70
2019-03-21T05:14:11.850Z,6.70
2019-03-21T05:16:40.062Z,6.80
2019-03-21T05:19:08.745Z,6.80
2019-03-21T05:21:36.866Z,6.80
2019-03-21T05:24:04.985Z,6.80
2019-03-21T05:26:33.064Z,6.70
2019-03-21T05:29:01.213Z,6.70
2019-03-21T05:31:30.942Z,6.60
2019-03-21T05:33:58.992Z,6.60
2019-03-21T05:36:27.000Z,6.50
2019-03-21T05:38:54.958Z,6.50
2019-03-21T05:41:22.940Z,6.60
2019-03-21T05:44:18.549Z,6.70
2019-03-21T05:46:46.517Z,6.70
2019-03-21T05:49:14.383Z,6.60
2019-03-21T05:51:42.564Z,6.60
2019-03-21T05:54:10.584Z,6.60
2019-03-21T05:56:38.443Z,6.60
2019-03-21T05:59:06.252Z,6.60
2019-03-21T06:01:34.108Z,6.70
2019-03-21T06:04:01.933Z,6.70
2019-03-21T06:06:49.152Z,6.70
2019-03-21T06:09:18.381Z,6.70
2019-03-21T06:11:49.549Z,6.80
2019-03-21T06:14:17.468Z,6.90
2019-03-21T06:16:45.401Z,6.90
2019-03-21T06:19:17.319Z,7.00
2019-03-21T06:22:32.787Z,7.10
2019-03-21T06:25:39.877Z,7.10
2019-03-21T06:28:07.762Z,7.20
2019-03-21T06:30:35.700Z,7.30
2019-03-21T06:33:03.958Z,7.30
2019-03-21T06:35:31.886Z,7.30
2019-03-21T06:37:59.717Z,7.40
2019-03-21T06:40:27.654Z,7.50
2019-03-21T06:42:55.879Z,7.50
2019-03-21T06:45:25.835Z,7.50
2019-03-21T06:47:54.017Z,7.60
2019-03-21T06:50:22.491Z,7.60
2019-03-21T06:52:50.316Z,7.70
2019-03-21T06:55:18.154Z,7.70
2019-03-21T06:57:45.991Z,7.80
2019-03-21T07:00:14.521Z,8.00
2019-03-21T07:02:42.895Z,8.20
2019-03-21T07:05:11.320Z,8.30
2019-03-21T07:07:39.484Z,8.40
2019-03-21T07:10:08.631Z,8.40
2019-03-21T07:12:36.844Z,8.60
2019-03-21T07:15:05.440Z,8.50
2019-03-21T07:17:33.298Z,8.60
2019-03-21T07:20:01.213Z,8.70
2019-03-21T07:22:29.177Z,8.70
2019-03-21T07:24:57.009Z,8.60
2019-03-21T07:27:24.845Z,8.60
2019-03-21T07:29:52.675Z,8.60
2019-03-21T07:32:20.534Z,8.70
2019-03-21T07:34:50.355Z,8.80
2019-03-21T07:37:18.287Z,8.80
2019-03-21T07:39:46.386Z,8.90
2019-03-21T07:42:14.322Z,8.80
2019-03-21T07:44:42.146Z,9.00
2019-03-21T07:47:13.206Z,9.20
2019-03-21T07:49:39.959Z,9.20
2019-03-21T07:52:07.887Z,9.30
2019-03-21T07:54:36.061Z,9.50
2019-03-21T07:57:03.918Z,9.50
2019-03-21T07:59:31.831Z,9.60
2019-03-21T08:01:59.659Z,9.60
2019-03-21T08:04:27.517Z,9.70
2019-03-21T08:06:55.671Z,9.80
2019-03-21T08:09:24.234Z,9.80
2019-03-21T08:11:52.496Z,9.90
2019-03-21T08:14:20.341Z,9.80
2019-03-21T08:16:48.494Z,10.00
2019-03-21T08:19:16.452Z,10.20
2019-03-21T08:21:44.630Z,10.20
2019-03-21T08:24:12.442Z,10.30
2019-03-21T08:26:40.271Z,10.30
2019-03-21T08:29:08.408Z,10.40
2019-03-21T08:31:36.260Z,10.50
2019-03-21T08:34:04.393Z,10.60
2019-03-21T08:36:32.215Z,10.80
2019-03-21T08:39:00.190Z,11.00
2019-03-21T08:41:28.352Z,10.90
2019-03-21T08:43:56.164Z,10.70
2019-03-21T08:46:24.023Z,10.80
2019-03-21T08:48:51.854Z,10.90
2019-03-21T08:51:20.325Z,10.90
2019-03-21T08:53:48.507Z,11.30
2019-03-21T08:56:16.450Z,11.60
2019-03-21T08:58:45.107Z,11.80
2019-03-21T09:01:13.268Z,11.80
2019-03-21T09:03:41.154Z,11.60
2019-03-21T09:06:09.019Z,11.70
2019-03-21T09:08:37.140Z,12.00
2019-03-21T09:11:05.022Z,12.20
2019-03-21T09:13:33.219Z,12.40
2019-03-21T09:16:01.050Z,12.60
2019-03-21T09:18:28.991Z,12.80
2019-03-21T09:20:57.235Z,12.60
2019-03-21T09:23:25.501Z,12.80
2019-03-21T09:25:53.721Z,12.90
2019-03-21T09:28:21.652Z,13.10
2019-03-21T09:30:50.763Z,12.90
2019-03-21T09:33:19.318Z,12.70
2019-03-21T09:35:47.202Z,12.70
2019-03-21T09:38:15.144Z,12.30
2019-03-21T09:40:43.015Z,12.30
2019-03-21T09:43:10.976Z,12.60
2019-03-21T09:45:39.179Z,12.50
2019-03-21T09:48:07.159Z,12.20
2019-03-21T09:50:35.131Z,12.40
2019-03-21T09:53:03.139Z,12.60
2019-03-21T09:55:31.343Z,13.00
2019-03-21T09:57:59.199Z,12.70
2019-03-21T10:00:31.377Z,12.60
2019-03-21T10:02:59.345Z,12.60
2019-03-21T10:05:27.609Z,13.10
2019-03-21T10:07:55.792Z,13.00
2019-03-21T10:10:28.293Z,13.40
2019-03-21T10:12:56.161Z,14.60
2019-03-21T10:15:24.300Z,14.40
2019-03-21T10:17:52.191Z,15.20
2019-03-21T10:20:20.060Z,15.90
2019-03-21T10:22:48.301Z,15.70
2019-03-21T10:25:16.863Z,14.90
2019-03-21T10:27:45.034Z,15.20
2019-03-21T10:30:19.139Z,15.20
2019-03-21T10:32:47.250Z,16.30
2019-03-21T10:35:15.101Z,18.80
2019-03-21T10:37:42.943Z,19.30
2019-03-21T10:40:10.847Z,17.90
2019-03-21T10:42:39.079Z,17.30
2019-03-21T10:45:06.904Z,17.10
2019-03-21T10:47:34.979Z,18.00
2019-03-21T10:50:03.346Z,17.90
2019-03-21T10:52:31.190Z,17.20
2019-03-21T10:54:58.945Z,17.90
2019-03-21T10:57:27.119Z,19.40
2019-03-21T10:59:55.034Z,20.20
2019-03-21T11:02:22.873Z,20.50
2019-03-21T11:04:50.699Z,20.30
2019-03-21T11:07:16.976Z,19.00
2019-03-21T11:09:44.926Z,19.60
2019-03-21T11:12:13.176Z,19.60
2019-03-21T11:14:41.090Z,20.80
2019-03-21T11:17:08.932Z,21.80
2019-03-21T11:19:37.046Z,21.30
2019-03-21T11:22:06.563Z,21.00
2019-03-21T11:24:34.569Z,21.00
2019-03-21T11:27:02.479Z,22.20
2019-03-21T11:29:30.395Z,22.00
2019-03-21T11:31:58.320Z,21.50
2019-03-21T11:34:26.139Z,22.00
2019-03-21T11:36:54.020Z,22.10
2019-03-21T11:39:21.874Z,23.10
2019-03-21T11:41:49.731Z,22.80
2019-03-21T11:44:17.581Z,22.20
2019-03-21T11:46:45.499Z,22.10
2019-03-21T11:49:13.727Z,22.90
2019-03-21T11:51:41.641Z,22.80
2019-03-21T11:54:09.571Z,24.00
2019-03-21T11:56:37.665Z,25.60
2019-03-21T11:59:05.496Z,26.00
2019-03-21T12:01:33.423Z,26.10
2019-03-21T12:04:01.315Z,26.00
2019-03-21T12:06:29.505Z,25.70
2019-03-21T12:08:57.373Z,24.30
2019-03-21T12:11:25.213Z,24.20
2019-03-21T12:13:53.291Z,25.70
2019-03-21T12:16:21.410Z,25.60
2019-03-21T12:18:49.359Z,24.60
2019-03-21T12:21:17.210Z,25.20
2019-03-21T12:23:45.407Z,25.20
2019-03-21T12:26:13.255Z,26.50
2019-03-21T12:28:41.075Z,26.90
2019-03-21T12:31:09.215Z,26.90
2019-03-21T12:33:37.143Z,25.00
2019-03-21T12:36:05.236Z,24.10
2019-03-21T12:38:33.698Z,24.30
2019-03-21T12:41:01.536Z,26.10
2019-03-21T12:43:29.734Z,25.30
2019-03-21T12:45:58.068Z,25.70
2019-03-21T12:48:25.908Z,26.70
2019-03-21T12:50:54.321Z,26.60
2019-03-21T12:53:22.254Z,26.10
2019-03-21T12:55:50.258Z,27.20
2019-03-21T12:58:18.611Z,26.90
2019-03-21T13:00:46.846Z,26.50
2019-03-21T13:03:15.058Z,27.90
2019-03-21T13:05:43.253Z,27.40
2019-03-21T13:08:11.159Z,27.50
2019-03-21T13:10:39.355Z,26.30
2019-03-21T13:13:07.309Z,26.70
2019-03-21T13:15:35.456Z,27.80
2019-03-21T13:18:04.973Z,26.00
2019-03-21T13:20:32.807Z,27.80
2019-03-21T13:23:00.801Z,27.90
2019-03-21T13:25:28.635Z,29.30
2019-03-21T13:27:56.468Z,28.30
2019-03-21T13:30:24.609Z,27.50
2019-03-21T13:32:52.456Z,25.30
2019-03-21T13:35:31.637Z,25.20
2019-03-21T13:37:50.229Z,27.20
2019-03-21T13:40:18.190Z,29.20
2019-03-21T13:42:46.149Z,28.30
2019-03-21T13:45:14.289Z,29.50
2019-03-21T13:47:42.205Z,29.90
2019-03-21T13:50:10.551Z,29.80
2019-03-21T13:52:38.742Z,28.60
2019-03-21T13:55:07.198Z,28.00
2019-03-21T13:57:35.091Z,28.60
2019-03-21T14:00:04.347Z,28.00
2019-03-21T14:02:32.193Z,26.60
2019-03-21T14:05:00.339Z,25.20
2019-03-21T14:07:28.202Z,26.10
2019-03-21T14:09:56.033Z,25.80
2019-03-21T14:12:23.873Z,26.30
2019-03-21T14:14:51.965Z,26.30
2019-03-21T14:17:22.129Z,25.70
2019-03-21T14:19:49.544Z,24.60
2019-03-21T14:22:17.535Z,24.80
2019-03-21T14:24:45.464Z,26.20
2019-03-21T14:27:13.579Z,27.90
2019-03-21T14:29:41.420Z,27.00
2019-03-21T14:32:09.589Z,26.90
2019-03-21T14:34:37.455Z,28.00
2019-03-21T14:37:05.958Z,28.80
2019-03-21T14:39:33.854Z,26.80
2019-03-21T14:42:02.227Z,27.00
2019-03-21T14:44:30.168Z,27.60
2019-03-21T14:46:58.269Z,28.10
2019-03-21T14:49:26.490Z,28.10
2019-03-21T14:51:54.655Z,27.80
2019-03-21T14:54:23.039Z,27.10
2019-03-21T14:56:51.213Z,26.40
2019-03-21T14:59:19.024Z,26.40
2019-03-21T15:01:47.148Z,27.00
2019-03-21T15:04:15.266Z,27.60
2019-03-21T15:06:43.169Z,27.20
2019-03-21T15:09:11.089Z,26.10
2019-03-21T15:11:39.455Z,26.10
2019-03-21T15:14:07.651Z,26.30
2019-03-21T15:16:35.780Z,27.60
2019-03-21T15:19:03.586Z,28.20
2019-03-21T15:21:31.421Z,27.50
2019-03-21T15:24:00.145Z,26.40
2019-03-21T15:26:28.111Z,24.50
2019-03-21T15:28:56.022Z,25.70
2019-03-21T15:31:23.997Z,26.10
2019-03-21T15:33:51.970Z,24.70
2019-03-21T15:36:20.200Z,23.40
2019-03-21T15:38:48.085Z,22.50
2019-03-21T15:41:16.028Z,21.80
2019-03-21T15:43:43.844Z,21.10
2019-03-21T15:46:12.099Z,20.30
2019-03-21T15:48:41.996Z,19.90
2019-03-21T15:51:09.825Z,19.30
2019-03-21T15:53:37.758Z,18.90
2019-03-21T15:56:05.963Z,18.50
2019-03-21T15:58:33.863Z,18.30
2019-03-21T16:01:01.770Z,18.10
2019-03-21T16:03:29.601Z,17.80
2019-03-21T16:05:57.616Z,17.50
2019-03-21T16:08:27.230Z,17.40
2019-03-21T16:10:55.197Z,17.50
2019-03-21T16:13:23.118Z,17.60
2019-03-21T16:15:51.051Z,17.60
2019-03-21T16:18:18.874Z,17.50
2019-03-21T16:20:46.690Z,17.40
2019-03-21T16:23:14.651Z,17.50
2019-03-21T16:25:42.509Z,17.40
2019-03-21T16:28:10.724Z,17.20
2019-03-21T16:30:38.602Z,17.10
2019-03-21T16:33:06.814Z,17.20
2019-03-21T16:35:34.935Z,17.20
2019-03-21T16:38:03.218Z,17.20
2019-03-21T16:40:31.432Z,17.00
2019-03-21T16:42:59.250Z,17.00
2019-03-21T16:45:27.165Z,17.00
2019-03-21T16:47:55.036Z,17.00
2019-03-21T16:50:23.022Z,17.30
2019-03-21T16:52:51.134Z,17.40
2019-03-21T16:55:18.987Z,17.20
2019-03-21T16:57:46.906Z,17.30
2019-03-21T17:00:17.606Z,17.20
2019-03-21T17:02:45.641Z,16.90
2019-03-21T17:05:13.489Z,16.50
2019-03-21T17:07:41.749Z,16.30
2019-03-21T17:10:12.629Z,16.10
2019-03-21T17:12:40.809Z,16.00
2019-03-21T17:15:09.175Z,15.70
2019-03-21T17:17:37.063Z,15.50
2019-03-21T17:20:05.188Z,15.30
2019-03-21T17:22:33.199Z,15.20
2019-03-21T17:25:01.074Z,15.00
2019-03-21T17:27:29.023Z,15.00
2019-03-21T17:29:57.011Z,14.90
2019-03-21T17:32:25.215Z,14.80
2019-03-21T17:34:53.098Z,14.70
2019-03-21T17:37:21.338Z,14.60
2019-03-21T17:39:49.062Z,14.50
2019-03-21T17:42:16.967Z,14.50
2019-03-21T17:44:44.828Z,14.40
2019-03-21T17:47:12.703Z,14.30
2019-03-21T17:49:40.518Z,14.30
2019-03-21T17:52:08.462Z,14.20
2019-03-21T17:54:41.387Z,14.20
2019-03-21T17:57:06.036Z,14.10
2019-03-21T17:59:34.616Z,14.00
2019-03-21T18:02:02.600Z,13.90
2019-03-21T18:04:30.520Z,13.90
2019-03-21T18:06:58.924Z,13.80
2019-03-21T18:09:26.871Z,13.70
2019-03-21T18:11:55.137Z,13.60
2019-03-21T18:14:23.397Z,13.50
2019-03-21T18:16:51.568Z,13.40
2019-03-21T18:19:20.091Z,13.40
2019-03-21T18:21:48.098Z,13.30
2019-03-21T18:24:16.080Z,13.20
2019-03-21T18:26:44.033Z,13.10
2019-03-21T18:29:12.160Z,13.00
2019-03-21T18:31:40.504Z,12.90
2019-03-21T18:34:08.476Z,12.90
2019-03-21T18:36:36.418Z,12.90
2019-03-21T18:39:06.852Z,12.90
2019-03-21T18:41:34.775Z,12.80
2019-03-21T18:44:02.701Z,12.70
2019-03-21T18:46:30.975Z,12.60
2019-03-21T18:48:59.082Z,12.60
2019-03-21T18:51:26.904Z,12.50
2019-03-21T18:53:54.784Z,12.40
2019-03-21T18:56:22.741Z,12.30
2019-03-21T18:58:50.976Z,12.20
2019-03-21T19:01:19.300Z,12.10
2019-03-21T19:03:47.439Z,12.00
2019-03-21T19:06:15.368Z,12.00
2019-03-21T19:08:43.322Z,12.00
2019-03-21T19:11:11.255Z,11.90
2019-03-21T19:13:43.803Z,11.90
2019-03-21T19:16:12.925Z,11.90
2019-03-21T19:18:40.942Z,11.90
2019-03-21T19:21:09.504Z,11.80
2019-03-21T19:23:37.926Z,11.70
2019-03-21T19:26:05.870Z,11.70
2019-03-21T19:28:34.706Z,11.60
2019-03-21T19:31:03.620Z,11.60
2019-03-21T19:33:31.474Z,11.50
2019-03-21T19:36:01.913Z,11.40
2019-03-21T19:38:29.997Z,11.30
2019-03-21T19:40:58.374Z,11.30
2019-03-21T19:43:26.357Z,11.20
2019-03-21T19:45:56.473Z,11.20
2019-03-21T19:48:26.265Z,11.10
2019-03-21T19:50:54.221Z,11.00
2019-03-21T19:53:22.383Z,11.00
2019-03-21T19:55:50.561Z,10.90
2019-03-21T19:58:18.728Z,10.80
2019-03-21T20:00:46.596Z,10.80
2019-03-21T20:03:14.597Z,10.80
2019-03-21T20:05:46.619Z,10.80
2019-03-21T20:08:14.718Z,10.70
2019-03-21T20:10:42.725Z,10.70
2019-03-21T20:13:10.922Z,10.60
2019-03-21T20:15:43.618Z,10.60
2019-03-21T20:18:11.850Z,10.50
2019-03-21T20:20:42.151Z,10.50
2019-03-21T20:23:11.401Z,10.50
2019-03-21T20:25:43.119Z,10.50
2019-03-21T20:28:09.822Z,10.40
2019-03-21T20:30:38.009Z,10.30
2019-03-21T20:33:06.148Z,10.30
2019-03-21T20:35:34.083Z,10.20
2019-03-21T20:38:02.729Z,10.20
2019-03-21T20:40:30.704Z,10.10
2019-03-21T20:42:58.570Z,10.00
2019-03-21T20:45:26.474Z,10.10
2019-03-21T20:47:54.374Z,10.10
2019-03-21T20:50:22.453Z,9.90
2019-03-21T20:52:50.318Z,9.90
2019-03-21T20:55:18.280Z,9.90
2019-03-21T20:57:46.371Z,9.90
2019-03-21T21:00:16.417Z,9.90
2019-03-21T21:02:44.662Z,9.90
2019-03-21T21:05:12.824Z,9.80
2019-03-21T21:07:40.817Z,9.80
2019-03-21T21:10:09.624Z,9.70
2019-03-21T21:12:37.587Z,9.70
2019-03-21T21:15:06.576Z,9.70
2019-03-21T21:17:34.570Z,9.70
2019-03-21T21:20:02.558Z,9.60
2019-03-21T21:22:31.117Z,9.60
2019-03-21T21:24:59.388Z,9.50
2019-03-21T21:27:27.953Z,9.40
2019-03-21T21:29:56.274Z,9.40
2019-03-21T21:32:24.482Z,9.40
2019-03-21T21:34:54.580Z,9.40
2019-03-21T21:37:22.784Z,9.30
2019-03-21T21:39:51.182Z,9.30
2019-03-21T21:42:19.345Z,9.20
2019-03-21T21:44:47.306Z,9.20
2019-03-21T21:47:15.558Z,9.20
2019-03-21T21:49:43.429Z,9.20
2019-03-21T21:52:11.367Z,9.20
2019-03-21T21:54:39.504Z,9.20
2019-03-21T21:57:07.437Z,9.10
2019-03-21T21:59:35.292Z,9.10
2019-03-21T22:02:03.124Z,9.10
2019-03-21T22:04:30.952Z,9.00
2019-03-21T22:06:59.095Z,9.00
2019-03-21T22:09:27.024Z,9.00
2019-03-21T22:11:54.765Z,9.00
2019-03-21T22:14:22.886Z,9.00
2019-03-21T22:16:51.139Z,8.90
2019-03-21T22:19:19.484Z,8.70
2019-03-21T22:21:47.317Z,8.70
2019-03-21T22:24:15.278Z,8.70
2019-03-21T22:26:43.486Z,8.60
2019-03-21T22:29:11.381Z,8.60
2019-03-21T22:31:39.670Z,8.50
2019-03-21T22:34:07.492Z,8.60
2019-03-21T22:36:35.646Z,8.50
2019-03-21T22:39:08.213Z,8.50
2019-03-21T22:41:36.174Z,8.50
2019-03-21T22:44:03.993Z,8.50
2019-03-21T22:46:32.173Z,8.50
2019-03-21T22:49:00.707Z,8.40
2019-03-21T22:51:28.704Z,8.40
2019-03-21T22:53:56.690Z,8.30
2019-03-21T22:56:24.983Z,8.40
2019-03-21T22:58:52.938Z,8.30
2019-03-21T23:01:20.919Z,8.30
2019-03-21T23:03:48.791Z,8.20
2019-03-21T23:06:17.196Z,8.20
2019-03-21T23:08:45.131Z,8.10
2019-03-21T23:11:13.258Z,8.00
2019-03-21T23:13:41.269Z,8.00
2019-03-21T23:16:09.205Z,8.00
2019-03-21T23:18:37.044Z,8.00
2019-03-21T23:21:05.006Z,8.00
2019-03-21T23:23:33.527Z,8.00
2019-03-21T23:26:01.666Z,8.00
2019-03-21T23:28:29.607Z,8.00
2019-03-21T23:30:58.222Z,8.00
2019-03-21T23:33:26.179Z,8.00
2019-03-21T23:35:54.448Z,7.90
2019-03-21T23:38:22.318Z,7.90
2019-03-21T23:40:50.155Z,7.90
2019-03-21T23:43:18.313Z,7.80
2019-03-21T23:45:46.512Z,7.80
2019-03-21T23:48:14.489Z,7.80
2019-03-21T23:50:42.406Z,7.80
2019-03-21T23:53:10.525Z,7.80
2019-03-21T23:55:38.443Z,7.80
2019-03-21T23:58:06.386Z,7.80
